Atlanta, Georgia
Traffic Map
Current Weather Conditions
Atlanta, Georgia
Overcast Thunderstorm
Overcast
15°
Feels Like: 15°
Wind Chill: 15° Ceiling: 1700
Heat Index: 15° Visibility: 1.7mi
Dew Point: 14° Wind: 13mph
Humidity: 96% Direction: 350° (N)
Pressure: 29.78in Gusts: 0mph
Raw Report DataKATL 211525Z 35011KT 1 3/4SM R09R/5000VP6000FT VCTS +RA BR SCT010 BKN017CB OVC029 15/14 A2978 RMK AO2 WSHFT 1510 TWR VIS 3 LTG DSNT ALQDS TSE18 OCNL LTGICCG ALQDS CB S MOV NE P0030 T01500144
Traffic Incident Summary
Active as of:
Severity:
Category:
InformationThere was an issue retrieving the traffic information for this location. Please try a different location or try again shortly.
Advertisements
Track Severe Weather on mobile